BIENTÔT MET'MAP
version 2.0 !

Prévue avant fin octobre,
la nouvelle version sera
plus belle, plus complète
et hébergée sur un serveur
3 fois plus puissant...
et toujours gratuite !


Pas compatible ?
Essayez la version Mobile !

SE CONNECTER : | S'inscrire | Disclaimer | Découvrir Orbifly |
Code OACI :

TAF - LGTS Thessaloniki - 27 May 2020 05:51 UTC - Data Source NOAA   


- Altitude de l'aérodrome : 22 ft
- Code IATA : SKG
- Pas de NOTAMs connus.


LGTS - Thessaloniki

Dernier METAR connu : 2015/08/11 07:50 LGTS 110750Z 31004KT 9999 FEW030 BKN090 27/17 Q1011 NOSIG
TAF TAF LGTS
Valide du 27 à 00h jusqu'au 28 à 00h UTC


262300Z 2700/2724 35010KT 9999 SCT025
TEMPO 2704/2716 7000 SHRA FEW018TCU SCT020
BECMG 2709/2711 VRB03KT
PROB40
TEMPO 2709/2715 4000 TSRA FEW018CB BKN020
BECMG 2716/2718 FEW025

Source NOAA


MET'MAP, la Météo Aéronautique d'un coup d'oeil ! - Copyright ORBIFLY Décembre 2007

Développement & Programmation : Alexandra Zaïnal
Co-Développement : Marc-Olivier Méhu
Soutien technique & logistique : Manuel Goepfert
Conception & Financement : Baudouin d'Aumeries